sensor_id;sensor_type;location;lat;lon;timestamp;pressure;altitude;pressure_sealevel;temperature;humidity
55456;BME280;63021;52.836;6.376;2023-03-14T00:02:10;98818.41;;;10.22;68.56
55456;BME280;63021;52.836;6.376;2023-03-14T00:04:36;98832.31;;;10.24;68.62
55456;BME280;63021;52.836;6.376;2023-03-14T00:07:02;98822.31;;;10.26;68.59
55456;BME280;63021;52.836;6.376;2023-03-14T00:09:28;98827.63;;;10.26;68.31
55456;BME280;63021;52.836;6.376;2023-03-14T00:11:55;98810.03;;;10.25;68.50
55456;BME280;63021;52.836;6.376;2023-03-14T00:14:20;98819.88;;;10.31;68.65
55456;BME280;63021;52.836;6.376;2023-03-14T00:16:46;98818.69;;;10.34;68.62
55456;BME280;63021;52.836;6.376;2023-03-14T00:19:13;98819.16;;;10.37;68.27
55456;BME280;63021;52.836;6.376;2023-03-14T00:21:39;98829.13;;;10.35;68.29
55456;BME280;63021;52.836;6.376;2023-03-14T00:24:05;98806.47;;;10.39;68.30
55456;BME280;63021;52.836;6.376;2023-03-14T00:26:31;98802.78;;;10.40;68.47
55456;BME280;63021;52.836;6.376;2023-03-14T00:28:56;98814.88;;;10.43;68.04
55456;BME280;63021;52.836;6.376;2023-03-14T00:31:22;98798.72;;;10.45;68.51
55456;BME280;63021;52.836;6.376;2023-03-14T00:33:47;98804.03;;;10.45;67.99
55456;BME280;63021;52.836;6.376;2023-03-14T00:36:17;98801.00;;;10.48;68.28
55456;BME280;63021;52.836;6.376;2023-03-14T00:38:44;98810.41;;;10.50;68.17
55456;BME280;63021;52.836;6.376;2023-03-14T00:41:14;98804.06;;;10.51;68.43
55456;BME280;63021;52.836;6.376;2023-03-14T00:43:40;98789.34;;;10.49;67.86
55456;BME280;63021;52.836;6.376;2023-03-14T00:46:07;98782.22;;;10.56;67.78
55456;BME280;63021;52.836;6.376;2023-03-14T00:48:34;98775.84;;;10.57;67.94
55456;BME280;63021;52.836;6.376;2023-03-14T00:50:59;98774.44;;;10.61;68.17
55456;BME280;63021;52.836;6.376;2023-03-14T00:53:24;98782.03;;;10.64;68.14
55456;BME280;63021;52.836;6.376;2023-03-14T00:55:53;98773.84;;;10.66;68.33
55456;BME280;63021;52.836;6.376;2023-03-14T00:58:18;98768.50;;;10.66;68.12
55456;BME280;63021;52.836;6.376;2023-03-14T01:00:45;98760.13;;;10.62;68.05
55456;BME280;63021;52.836;6.376;2023-03-14T01:03:12;98772.44;;;10.70;68.46
55456;BME280;63021;52.836;6.376;2023-03-14T01:05:38;98754.63;;;10.70;68.08
55456;BME280;63021;52.836;6.376;2023-03-14T01:08:04;98755.00;;;10.67;68.14
55456;BME280;63021;52.836;6.376;2023-03-14T01:10:30;98764.44;;;10.70;68.36
55456;BME280;63021;52.836;6.376;2023-03-14T01:12:56;98757.25;;;10.64;68.20
55456;BME280;63021;52.836;6.376;2023-03-14T01:15:23;98757.66;;;10.67;68.88
55456;BME280;63021;52.836;6.376;2023-03-14T01:17:49;98764.22;;;10.65;68.80
55456;BME280;63021;52.836;6.376;2023-03-14T01:20:15;98772.41;;;10.63;68.83
55456;BME280;63021;52.836;6.376;2023-03-14T01:22:41;98758.25;;;10.56;69.29
55456;BME280;63021;52.836;6.376;2023-03-14T01:25:10;98763.59;;;10.56;68.97
55456;BME280;63021;52.836;6.376;2023-03-14T01:27:37;98765.81;;;10.52;69.42
55456;BME280;63021;52.836;6.376;2023-03-14T01:30:03;98764.34;;;10.50;69.48
55456;BME280;63021;52.836;6.376;2023-03-14T01:32:30;98766.59;;;10.46;69.33
55456;BME280;63021;52.836;6.376;2023-03-14T01:34:55;98763.28;;;10.37;69.38
55456;BME280;63021;52.836;6.376;2023-03-14T01:37:21;98759.34;;;10.33;69.29
55456;BME280;63021;52.836;6.376;2023-03-14T01:39:47;98774.47;;;10.33;69.00
55456;BME280;63021;52.836;6.376;2023-03-14T01:42:13;98774.84;;;10.30;69.63
55456;BME280;63021;52.836;6.376;2023-03-14T01:45:00;98784.06;;;10.27;69.53
55456;BME280;63021;52.836;6.376;2023-03-14T01:47:26;98777.91;;;10.27;69.49
55456;BME280;63021;52.836;6.376;2023-03-14T01:50:01;98773.59;;;10.26;69.51
55456;BME280;63021;52.836;6.376;2023-03-14T01:52:35;98769.88;;;10.20;69.21
55456;BME280;63021;52.836;6.376;2023-03-14T01:55:17;98775.41;;;10.18;69.71
55456;BME280;63021;52.836;6.376;2023-03-14T01:57:46;98755.19;;;10.17;69.64
55456;BME280;63021;52.836;6.376;2023-03-14T02:00:16;98756.59;;;10.20;69.29
55456;BME280;63021;52.836;6.376;2023-03-14T02:02:46;98779.72;;;10.19;69.53
55456;BME280;63021;52.836;6.376;2023-03-14T02:05:15;98742.50;;;10.19;69.65
55456;BME280;63021;52.836;6.376;2023-03-14T02:08:02;98754.34;;;10.17;69.55
55456;BME280;63021;52.836;6.376;2023-03-14T02:10:30;98757.19;;;10.15;69.51
55456;BME280;63021;52.836;6.376;2023-03-14T02:13:00;98753.28;;;10.11;69.70
55456;BME280;63021;52.836;6.376;2023-03-14T02:15:26;98747.59;;;10.14;69.57
55456;BME280;63021;52.836;6.376;2023-03-14T02:17:52;98748.59;;;10.13;69.97
55456;BME280;63021;52.836;6.376;2023-03-14T02:20:39;98756.56;;;10.13;70.07
55456;BME280;63021;52.836;6.376;2023-03-14T02:23:07;98763.69;;;10.06;69.81
55456;BME280;63021;52.836;6.376;2023-03-14T02:28:08;98747.75;;;10.06;70.34
55456;BME280;63021;52.836;6.376;2023-03-14T02:30:33;98747.94;;;10.04;70.26
55456;BME280;63021;52.836;6.376;2023-03-14T02:33:13;98751.81;;;10.02;70.67
55456;BME280;63021;52.836;6.376;2023-03-14T02:35:52;98748.69;;;9.98;70.60
55456;BME280;63021;52.836;6.376;2023-03-14T02:40:56;98736.63;;;9.96;70.94
55456;BME280;63021;52.836;6.376;2023-03-14T02:43:21;98727.41;;;9.92;71.02
55456;BME280;63021;52.836;6.376;2023-03-14T02:45:48;98737.84;;;9.93;71.89
55456;BME280;63021;52.836;6.376;2023-03-14T02:48:25;98726.97;;;9.88;72.29
55456;BME280;63021;52.836;6.376;2023-03-14T02:50:55;98738.78;;;9.85;72.05
55456;BME280;63021;52.836;6.376;2023-03-14T02:53:32;98748.81;;;9.83;72.50
55456;BME280;63021;52.836;6.376;2023-03-14T02:55:59;98743.88;;;9.80;72.73
55456;BME280;63021;52.836;6.376;2023-03-14T02:58:25;98729.34;;;9.76;72.96
55456;BME280;63021;52.836;6.376;2023-03-14T03:00:51;98726.28;;;9.73;73.33
55456;BME280;63021;52.836;6.376;2023-03-14T03:03:16;98720.13;;;9.72;73.33
55456;BME280;63021;52.836;6.376;2023-03-14T03:05:42;98726.81;;;9.68;73.98
55456;BME280;63021;52.836;6.376;2023-03-14T03:08:09;98726.78;;;9.61;73.87
55456;BME280;63021;52.836;6.376;2023-03-14T03:10:34;98720.81;;;9.52;73.83
55456;BME280;63021;52.836;6.376;2023-03-14T03:13:00;98706.66;;;9.45;74.24
55456;BME280;63021;52.836;6.376;2023-03-14T03:15:26;98735.13;;;9.58;74.47
55456;BME280;63021;52.836;6.376;2023-03-14T03:17:52;98742.47;;;9.56;74.79
55456;BME280;63021;52.836;6.376;2023-03-14T03:20:18;98737.16;;;9.56;74.43
55456;BME280;63021;52.836;6.376;2023-03-14T03:22:43;98725.47;;;9.50;75.08
55456;BME280;63021;52.836;6.376;2023-03-14T03:25:09;98731.03;;;9.56;74.78
55456;BME280;63021;52.836;6.376;2023-03-14T03:27:36;98733.88;;;9.54;75.03
55456;BME280;63021;52.836;6.376;2023-03-14T03:30:04;98726.88;;;9.46;74.93
55456;BME280;63021;52.836;6.376;2023-03-14T03:32:32;98729.13;;;9.49;75.64
55456;BME280;63021;52.836;6.376;2023-03-14T03:34:58;98733.81;;;9.47;75.74
55456;BME280;63021;52.836;6.376;2023-03-14T03:37:23;98724.41;;;9.45;75.80
55456;BME280;63021;52.836;6.376;2023-03-14T03:39:52;98726.44;;;9.43;75.82
55456;BME280;63021;52.836;6.376;2023-03-14T03:42:18;98731.09;;;9.41;75.80
55456;BME280;63021;52.836;6.376;2023-03-14T03:44:45;98719.47;;;9.42;76.10
55456;BME280;63021;52.836;6.376;2023-03-14T03:47:10;98725.19;;;9.39;75.57
55456;BME280;63021;52.836;6.376;2023-03-14T03:49:37;98715.16;;;9.41;75.98
55456;BME280;63021;52.836;6.376;2023-03-14T03:52:02;98722.53;;;9.39;76.19
55456;BME280;63021;52.836;6.376;2023-03-14T03:54:28;98724.38;;;9.38;76.71
55456;BME280;63021;52.836;6.376;2023-03-14T03:56:54;98717.78;;;9.34;76.85
55456;BME280;63021;52.836;6.376;2023-03-14T03:59:19;98738.19;;;9.33;77.16
55456;BME280;63021;52.836;6.376;2023-03-14T04:01:46;98719.38;;;9.28;77.13
55456;BME280;63021;52.836;6.376;2023-03-14T04:04:12;98731.06;;;9.34;77.26
55456;BME280;63021;52.836;6.376;2023-03-14T04:06:38;98730.41;;;9.32;77.02
55456;BME280;63021;52.836;6.376;2023-03-14T04:09:09;98741.03;;;9.32;77.13
55456;BME280;63021;52.836;6.376;2023-03-14T04:11:34;98742.25;;;9.29;77.53
55456;BME280;63021;52.836;6.376;2023-03-14T04:14:00;98755.72;;;9.28;77.75
55456;BME280;63021;52.836;6.376;2023-03-14T04:16:26;98740.63;;;9.28;77.81
55456;BME280;63021;52.836;6.376;2023-03-14T04:18:54;98732.00;;;9.26;77.41
55456;BME280;63021;52.836;6.376;2023-03-14T04:21:20;98721.34;;;9.19;77.66
55456;BME280;63021;52.836;6.376;2023-03-14T04:23:45;98727.88;;;9.24;78.15
55456;BME280;63021;52.836;6.376;2023-03-14T04:26:11;98720.50;;;9.19;77.85
55456;BME280;63021;52.836;6.376;2023-03-14T04:28:37;98747.88;;;9.19;77.92
55456;BME280;63021;52.836;6.376;2023-03-14T04:31:20;98744.19;;;9.21;78.33
55456;BME280;63021;52.836;6.376;2023-03-14T04:33:53;98728.03;;;9.15;78.05
55456;BME280;63021;52.836;6.376;2023-03-14T04:36:18;98731.50;;;9.16;78.35
55456;BME280;63021;52.836;6.376;2023-03-14T04:38:44;98724.53;;;9.15;78.75
55456;BME280;63021;52.836;6.376;2023-03-14T04:41:09;98722.09;;;9.13;78.76
55456;BME280;63021;52.836;6.376;2023-03-14T04:43:34;98732.47;;;9.08;78.47
55456;BME280;63021;52.836;6.376;2023-03-14T04:46:00;98718.00;;;9.11;78.83
55456;BME280;63021;52.836;6.376;2023-03-14T04:48:26;98723.66;;;9.08;78.49
55456;BME280;63021;52.836;6.376;2023-03-14T04:50:52;98715.16;;;9.12;78.36
55456;BME280;63021;52.836;6.376;2023-03-14T04:53:18;98717.53;;;9.07;78.90
55456;BME280;63021;52.836;6.376;2023-03-14T04:55:56;98716.34;;;9.10;78.51
55456;BME280;63021;52.836;6.376;2023-03-14T04:58:22;98706.16;;;9.13;78.46
55456;BME280;63021;52.836;6.376;2023-03-14T05:00:48;98694.28;;;9.09;78.84
55456;BME280;63021;52.836;6.376;2023-03-14T05:03:17;98707.19;;;9.12;78.66
55456;BME280;63021;52.836;6.376;2023-03-14T05:05:45;98701.88;;;9.12;78.42
55456;BME280;63021;52.836;6.376;2023-03-14T05:08:11;98698.84;;;9.15;78.45
55456;BME280;63021;52.836;6.376;2023-03-14T05:10:36;98689.84;;;9.16;78.84
55456;BME280;63021;52.836;6.376;2023-03-14T05:13:06;98681.72;;;9.18;78.26
55456;BME280;63021;52.836;6.376;2023-03-14T05:15:31;98685.75;;;9.14;78.71
55456;BME280;63021;52.836;6.376;2023-03-14T05:17:57;98683.34;;;9.19;78.97
55456;BME280;63021;52.836;6.376;2023-03-14T05:20:22;98677.59;;;9.15;78.68
55456;BME280;63021;52.836;6.376;2023-03-14T05:22:47;98680.88;;;9.17;78.82
55456;BME280;63021;52.836;6.376;2023-03-14T05:25:13;98682.53;;;9.18;78.76
55456;BME280;63021;52.836;6.376;2023-03-14T05:27:38;98702.09;;;9.17;78.52
55456;BME280;63021;52.836;6.376;2023-03-14T05:30:05;98692.13;;;9.19;78.47
55456;BME280;63021;52.836;6.376;2023-03-14T05:32:31;98681.25;;;9.14;78.78
55456;BME280;63021;52.836;6.376;2023-03-14T05:34:57;98694.59;;;9.21;78.94
55456;BME280;63021;52.836;6.376;2023-03-14T05:37:27;98679.69;;;9.20;78.75
55456;BME280;63021;52.836;6.376;2023-03-14T05:39:53;98690.50;;;9.18;79.07
55456;BME280;63021;52.836;6.376;2023-03-14T05:42:21;98683.31;;;9.12;79.42
55456;BME280;63021;52.836;6.376;2023-03-14T05:44:49;98666.84;;;9.02;79.04
55456;BME280;63021;52.836;6.376;2023-03-14T05:47:18;98680.84;;;9.11;79.33
55456;BME280;63021;52.836;6.376;2023-03-14T05:49:43;98693.06;;;9.12;79.50
55456;BME280;63021;52.836;6.376;2023-03-14T05:52:08;98704.72;;;9.11;79.37
55456;BME280;63021;52.836;6.376;2023-03-14T05:54:34;98709.38;;;9.09;79.82
55456;BME280;63021;52.836;6.376;2023-03-14T05:56:59;98706.94;;;9.07;79.57
55456;BME280;63021;52.836;6.376;2023-03-14T05:59:25;98709.78;;;9.06;79.95
55456;BME280;63021;52.836;6.376;2023-03-14T06:01:53;98708.13;;;9.05;80.23
55456;BME280;63021;52.836;6.376;2023-03-14T06:04:18;98697.88;;;9.01;79.88
55456;BME280;63021;52.836;6.376;2023-03-14T06:06:44;98703.66;;;9.05;80.43
55456;BME280;63021;52.836;6.376;2023-03-14T06:09:09;98694.84;;;9.05;80.44
55456;BME280;63021;52.836;6.376;2023-03-14T06:11:35;98699.53;;;9.02;80.67
55456;BME280;63021;52.836;6.376;2023-03-14T06:14:00;98683.53;;;8.96;80.78
55456;BME280;63021;52.836;6.376;2023-03-14T06:16:25;98682.16;;;9.00;80.32
55456;BME280;63021;52.836;6.376;2023-03-14T06:18:52;98693.59;;;9.00;80.82
55456;BME280;63021;52.836;6.376;2023-03-14T06:21:17;98687.47;;;9.00;80.49
55456;BME280;63021;52.836;6.376;2023-03-14T06:23:44;98697.06;;;9.01;80.37
55456;BME280;63021;52.836;6.376;2023-03-14T06:26:09;98693.59;;;9.00;80.85
55456;BME280;63021;52.836;6.376;2023-03-14T06:28:36;98689.31;;;8.99;80.91
55456;BME280;63021;52.836;6.376;2023-03-14T06:31:02;98698.06;;;9.00;80.87
55456;BME280;63021;52.836;6.376;2023-03-14T06:33:27;98693.38;;;9.02;80.78
55456;BME280;63021;52.836;6.376;2023-03-14T06:35:53;98680.47;;;8.92;80.39
55456;BME280;63021;52.836;6.376;2023-03-14T06:38:18;98706.03;;;9.00;80.98
55456;BME280;63021;52.836;6.376;2023-03-14T06:40:45;98706.84;;;9.00;80.94
55456;BME280;63021;52.836;6.376;2023-03-14T06:43:10;98707.69;;;9.01;80.67
55456;BME280;63021;52.836;6.376;2023-03-14T06:45:35;98706.03;;;9.00;80.75
55456;BME280;63021;52.836;6.376;2023-03-14T06:48:01;98711.72;;;8.97;80.43
55456;BME280;63021;52.836;6.376;2023-03-14T06:50:26;98722.97;;;8.99;81.09
55456;BME280;63021;52.836;6.376;2023-03-14T06:52:52;98717.22;;;8.95;80.60
55456;BME280;63021;52.836;6.376;2023-03-14T06:55:20;98759.50;;;8.97;81.00
55456;BME280;63021;52.836;6.376;2023-03-14T06:57:47;98768.47;;;8.96;81.29
55456;BME280;63021;52.836;6.376;2023-03-14T07:00:13;98773.34;;;8.92;81.14
55456;BME280;63021;52.836;6.376;2023-03-14T07:02:39;98774.91;;;8.87;81.51
55456;BME280;63021;52.836;6.376;2023-03-14T07:05:05;98789.94;;;8.79;81.26
55456;BME280;63021;52.836;6.376;2023-03-14T07:07:31;98798.06;;;8.78;81.12
55456;BME280;63021;52.836;6.376;2023-03-14T07:09:56;98794.13;;;8.74;80.93
55456;BME280;63021;52.836;6.376;2023-03-14T07:12:22;98818.19;;;8.72;80.99
55456;BME280;63021;52.836;6.376;2023-03-14T07:14:49;98817.91;;;8.67;81.09
55456;BME280;63021;52.836;6.376;2023-03-14T07:17:14;98846.81;;;8.62;80.65
55456;BME280;63021;52.836;6.376;2023-03-14T07:19:40;98866.00;;;8.49;80.26
55456;BME280;63021;52.836;6.376;2023-03-14T07:22:07;98876.66;;;8.26;79.63
55456;BME280;63021;52.836;6.376;2023-03-14T07:24:35;98907.69;;;8.02;79.31
55456;BME280;63021;52.836;6.376;2023-03-14T07:27:01;98891.91;;;7.62;78.70
55456;BME280;63021;52.836;6.376;2023-03-14T07:29:26;98946.97;;;7.44;78.36
55456;BME280;63021;52.836;6.376;2023-03-14T07:31:51;98947.41;;;7.24;78.42
55456;BME280;63021;52.836;6.376;2023-03-14T07:34:17;98955.91;;;7.03;78.87
55456;BME280;63021;52.836;6.376;2023-03-14T07:36:42;98970.34;;;6.84;78.40
55456;BME280;63021;52.836;6.376;2023-03-14T07:39:08;98968.56;;;6.60;78.75
55456;BME280;63021;52.836;6.376;2023-03-14T07:41:36;98994.38;;;6.50;79.01
55456;BME280;63021;52.836;6.376;2023-03-14T07:44:01;99001.13;;;6.36;78.85
55456;BME280;63021;52.836;6.376;2023-03-14T07:46:27;99004.94;;;6.17;79.27
55456;BME280;63021;52.836;6.376;2023-03-14T07:48:52;99027.84;;;6.00;79.01
55456;BME280;63021;52.836;6.376;2023-03-14T07:51:17;99052.38;;;5.84;78.44
55456;BME280;63021;52.836;6.376;2023-03-14T07:53:43;99038.09;;;5.52;78.53
55456;BME280;63021;52.836;6.376;2023-03-14T07:56:09;99059.63;;;5.39;78.20
55456;BME280;63021;52.836;6.376;2023-03-14T07:58:34;99046.59;;;5.11;77.98
55456;BME280;63021;52.836;6.376;2023-03-14T08:01:01;99051.78;;;4.95;78.58
55456;BME280;63021;52.836;6.376;2023-03-14T08:03:27;99103.31;;;5.07;78.54
55456;BME280;63021;52.836;6.376;2023-03-14T08:05:53;99082.56;;;4.86;78.82
55456;BME280;63021;52.836;6.376;2023-03-14T08:08:18;99092.81;;;4.71;78.53
55456;BME280;63021;52.836;6.376;2023-03-14T08:10:44;99135.13;;;4.88;78.53
55456;BME280;63021;52.836;6.376;2023-03-14T08:13:11;99136.03;;;4.78;78.87
55456;BME280;63021;52.836;6.376;2023-03-14T08:15:36;99147.72;;;4.76;78.73
55456;BME280;63021;52.836;6.376;2023-03-14T08:18:02;99150.22;;;4.77;79.27
55456;BME280;63021;52.836;6.376;2023-03-14T08:20:29;99148.84;;;4.73;78.69
55456;BME280;63021;52.836;6.376;2023-03-14T08:22:59;99164.22;;;4.78;79.12
55456;BME280;63021;52.836;6.376;2023-03-14T08:25:25;99191.53;;;4.77;79.16
55456;BME280;63021;52.836;6.376;2023-03-14T08:27:51;99167.75;;;4.68;79.07
55456;BME280;63021;52.836;6.376;2023-03-14T08:30:18;99188.25;;;4.75;79.58
55456;BME280;63021;52.836;6.376;2023-03-14T08:32:46;99163.22;;;4.61;79.90
55456;BME280;63021;52.836;6.376;2023-03-14T08:35:12;99188.84;;;4.68;79.42
55456;BME280;63021;52.836;6.376;2023-03-14T08:37:37;99179.19;;;4.59;79.33
55456;BME280;63021;52.836;6.376;2023-03-14T08:40:05;99225.59;;;4.88;79.80
55456;BME280;63021;52.836;6.376;2023-03-14T08:42:37;99230.13;;;4.96;79.87
55456;BME280;63021;52.836;6.376;2023-03-14T08:45:03;99233.06;;;4.93;79.76
55456;BME280;63021;52.836;6.376;2023-03-14T08:47:28;99263.66;;;5.03;79.59
55456;BME280;63021;52.836;6.376;2023-03-14T08:49:54;99263.00;;;5.01;79.12
55456;BME280;63021;52.836;6.376;2023-03-14T08:52:19;99273.91;;;5.07;79.01
55456;BME280;63021;52.836;6.376;2023-03-14T08:54:45;99289.59;;;5.08;78.88
55456;BME280;63021;52.836;6.376;2023-03-14T08:57:10;99269.91;;;5.02;78.69
55456;BME280;63021;52.836;6.376;2023-03-14T08:59:36;99308.28;;;5.15;79.30
55456;BME280;63021;52.836;6.376;2023-03-14T09:02:01;99312.97;;;5.21;79.12
55456;BME280;63021;52.836;6.376;2023-03-14T09:04:32;99315.97;;;5.26;79.66
55456;BME280;63021;52.836;6.376;2023-03-14T09:06:58;99335.97;;;5.29;79.34
55456;BME280;63021;52.836;6.376;2023-03-14T09:09:25;99337.44;;;5.31;78.80
55456;BME280;63021;52.836;6.376;2023-03-14T09:11:52;99354.88;;;5.42;78.45
55456;BME280;63021;52.836;6.376;2023-03-14T09:14:17;99364.03;;;5.48;78.92
55456;BME280;63021;52.836;6.376;2023-03-14T09:16:43;99382.19;;;5.51;77.96
55456;BME280;63021;52.836;6.376;2023-03-14T09:19:08;99371.47;;;5.52;78.04
55456;BME280;63021;52.836;6.376;2023-03-14T09:21:33;99374.34;;;5.59;77.35
55456;BME280;63021;52.836;6.376;2023-03-14T09:23:59;99400.53;;;5.70;77.69
55456;BME280;63021;52.836;6.376;2023-03-14T09:26:25;99411.28;;;5.77;77.42
55456;BME280;63021;52.836;6.376;2023-03-14T09:28:50;99425.88;;;5.81;77.10
55456;BME280;63021;52.836;6.376;2023-03-14T09:31:16;99416.56;;;5.77;76.06
55456;BME280;63021;52.836;6.376;2023-03-14T09:33:42;99445.94;;;5.92;75.40
55456;BME280;63021;52.836;6.376;2023-03-14T09:36:08;99446.47;;;5.96;75.26
55456;BME280;63021;52.836;6.376;2023-03-14T09:38:34;99466.03;;;6.03;75.46
55456;BME280;63021;52.836;6.376;2023-03-14T09:41:02;99457.81;;;6.06;75.31
55456;BME280;63021;52.836;6.376;2023-03-14T09:43:35;99473.91;;;6.13;75.27
55456;BME280;63021;52.836;6.376;2023-03-14T09:46:01;99482.88;;;6.20;75.23
55456;BME280;63021;52.836;6.376;2023-03-14T09:48:32;99491.69;;;6.29;74.73
55456;BME280;63021;52.836;6.376;2023-03-14T09:51:00;99490.88;;;6.28;74.65
55456;BME280;63021;52.836;6.376;2023-03-14T09:53:40;99497.06;;;6.37;73.83
55456;BME280;63021;52.836;6.376;2023-03-14T09:56:23;99499.53;;;6.38;72.87
55456;BME280;63021;52.836;6.376;2023-03-14T09:59:02;99504.13;;;6.36;72.94
55456;BME280;63021;52.836;6.376;2023-03-14T10:01:30;99520.53;;;6.40;73.15
55456;BME280;63021;52.836;6.376;2023-03-14T10:04:02;99541.53;;;6.41;73.05
55456;BME280;63021;52.836;6.376;2023-03-14T10:06:32;99550.28;;;6.42;73.02
55456;BME280;63021;52.836;6.376;2023-03-14T10:09:00;99567.06;;;6.33;72.41
55456;BME280;63021;52.836;6.376;2023-03-14T10:11:26;99565.91;;;6.17;72.38
55456;BME280;63021;52.836;6.376;2023-03-14T10:16:29;99576.03;;;5.94;73.26
55456;BME280;63021;52.836;6.376;2023-03-14T10:19:02;99586.50;;;5.86;73.42
55456;BME280;63021;52.836;6.376;2023-03-14T10:21:29;99603.34;;;5.85;73.26
55456;BME280;63021;52.836;6.376;2023-03-14T10:24:18;99614.78;;;5.76;72.38
55456;BME280;63021;52.836;6.376;2023-03-14T10:26:47;99625.34;;;5.76;72.49
55456;BME280;63021;52.836;6.376;2023-03-14T10:29:13;99635.31;;;5.82;72.45
55456;BME280;63021;52.836;6.376;2023-03-14T10:34:35;99646.72;;;5.82;70.35
55456;BME280;63021;52.836;6.376;2023-03-14T10:37:17;99647.25;;;5.86;71.07
55456;BME280;63021;52.836;6.376;2023-03-14T10:39:47;99685.63;;;5.90;70.55
55456;BME280;63021;52.836;6.376;2023-03-14T10:42:21;99664.34;;;5.92;69.33
55456;BME280;63021;52.836;6.376;2023-03-14T10:44:53;99684.34;;;5.94;68.77
55456;BME280;63021;52.836;6.376;2023-03-14T10:47:22;99693.94;;;6.05;68.46
55456;BME280;63021;52.836;6.376;2023-03-14T10:49:49;99701.13;;;6.13;67.31
55456;BME280;63021;52.836;6.376;2023-03-14T10:52:27;99705.53;;;6.22;67.27
55456;BME280;63021;52.836;6.376;2023-03-14T10:55:09;99728.34;;;6.23;65.78
55456;BME280;63021;52.836;6.376;2023-03-14T10:57:41;99709.84;;;6.23;64.40
55456;BME280;63021;52.836;6.376;2023-03-14T11:00:23;99743.47;;;6.31;63.71
55456;BME280;63021;52.836;6.376;2023-03-14T11:03:08;99732.69;;;6.14;63.15
55456;BME280;63021;52.836;6.376;2023-03-14T11:05:49;99755.34;;;6.17;62.84
55456;BME280;63021;52.836;6.376;2023-03-14T11:08:42;99779.13;;;6.17;60.88
55456;BME280;63021;52.836;6.376;2023-03-14T11:11:24;99790.53;;;6.17;62.03
55456;BME280;63021;52.836;6.376;2023-03-14T11:19:57;99811.78;;;6.26;60.72
55456;BME280;63021;52.836;6.376;2023-03-14T11:22:57;99826.28;;;6.21;60.08
55456;BME280;63021;52.836;6.376;2023-03-14T11:25:32;99834.63;;;6.17;59.44
55456;BME280;63021;52.836;6.376;2023-03-14T11:28:17;99850.19;;;6.20;59.38
55456;BME280;63021;52.836;6.376;2023-03-14T11:30:53;99848.94;;;6.24;57.55
55456;BME280;63021;52.836;6.376;2023-03-14T11:33:28;99822.38;;;6.16;58.66
55456;BME280;63021;52.836;6.376;2023-03-14T11:36:10;99863.47;;;6.48;56.21
55456;BME280;63021;52.836;6.376;2023-03-14T11:41:14;99877.22;;;6.61;56.24
55456;BME280;63021;52.836;6.376;2023-03-14T11:43:41;99894.16;;;6.68;55.98
55456;BME280;63021;52.836;6.376;2023-03-14T11:46:24;99896.50;;;6.71;55.78
55456;BME280;63021;52.836;6.376;2023-03-14T11:52:00;99932.81;;;6.79;54.13
55456;BME280;63021;52.836;6.376;2023-03-14T11:54:42;99934.03;;;6.85;54.89
55456;BME280;63021;52.836;6.376;2023-03-14T11:57:16;99919.84;;;6.86;55.09
55456;BME280;63021;52.836;6.376;2023-03-14T12:00:04;99928.13;;;7.01;53.36
55456;BME280;63021;52.836;6.376;2023-03-14T12:10:26;99969.47;;;7.11;51.84
55456;BME280;63021;52.836;6.376;2023-03-14T12:12:52;99961.81;;;7.08;51.22
55456;BME280;63021;52.836;6.376;2023-03-14T12:15:20;99958.22;;;7.00;51.78
55456;BME280;63021;52.836;6.376;2023-03-14T12:17:46;99980.97;;;7.20;51.59
55456;BME280;63021;52.836;6.376;2023-03-14T12:20:19;99983.00;;;7.36;50.95
55456;BME280;63021;52.836;6.376;2023-03-14T12:25:28;100015.16;;;7.69;51.63
55456;BME280;63021;52.836;6.376;2023-03-14T12:35:40;99997.38;;;8.33;50.46
55456;BME280;63021;52.836;6.376;2023-03-14T12:41:17;100015.31;;;8.40;49.52
55456;BME280;63021;52.836;6.376;2023-03-14T12:43:45;100020.41;;;8.33;49.40
55456;BME280;63021;52.836;6.376;2023-03-14T12:48:47;100051.25;;;8.16;50.17
55456;BME280;63021;52.836;6.376;2023-03-14T12:51:15;100045.88;;;8.08;50.35
55456;BME280;63021;52.836;6.376;2023-03-14T12:53:51;100041.53;;;7.89;50.72
55456;BME280;63021;52.836;6.376;2023-03-14T12:56:42;100055.66;;;7.79;50.32
55456;BME280;63021;52.836;6.376;2023-03-14T12:59:16;100061.16;;;7.68;51.21
55456;BME280;63021;52.836;6.376;2023-03-14T13:04:37;100081.75;;;7.46;52.52
55456;BME280;63021;52.836;6.376;2023-03-14T13:07:28;100086.69;;;7.32;52.96
55456;BME280;63021;52.836;6.376;2023-03-14T13:15:34;100102.94;;;7.46;52.03
55456;BME280;63021;52.836;6.376;2023-03-14T13:18:18;100109.28;;;7.63;51.33
55456;BME280;63021;52.836;6.376;2023-03-14T13:20:55;100124.59;;;7.70;49.35
55456;BME280;63021;52.836;6.376;2023-03-14T13:23:26;100127.56;;;7.57;48.68
55456;BME280;63021;52.836;6.376;2023-03-14T13:25:53;100135.59;;;7.37;49.32
55456;BME280;63021;52.836;6.376;2023-03-14T13:28:19;100160.41;;;7.26;48.88
55456;BME280;63021;52.836;6.376;2023-03-14T13:30:47;100190.41;;;7.07;48.01
55456;BME280;63021;52.836;6.376;2023-03-14T13:33:16;100166.88;;;6.94;46.98
55456;BME280;63021;52.836;6.376;2023-03-14T13:35:48;100156.69;;;6.80;45.63
55456;BME280;63021;52.836;6.376;2023-03-14T13:38:18;100181.34;;;6.81;45.41
55456;BME280;63021;52.836;6.376;2023-03-14T13:40:45;100181.06;;;6.74;45.45
55456;BME280;63021;52.836;6.376;2023-03-14T13:43:27;100184.13;;;6.79;46.30
55456;BME280;63021;52.836;6.376;2023-03-14T13:46:12;100193.03;;;6.88;46.26
55456;BME280;63021;52.836;6.376;2023-03-14T13:49:00;100202.38;;;6.92;46.76
55456;BME280;63021;52.836;6.376;2023-03-14T13:51:27;100217.81;;;6.97;47.13
55456;BME280;63021;52.836;6.376;2023-03-14T13:53:57;100194.44;;;6.72;45.60
55456;BME280;63021;52.836;6.376;2023-03-14T13:56:26;100199.84;;;6.71;46.28
55456;BME280;63021;52.836;6.376;2023-03-14T13:58:52;100208.44;;;6.53;46.39
55456;BME280;63021;52.836;6.376;2023-03-14T14:01:29;100236.59;;;6.64;46.88
55456;BME280;63021;52.836;6.376;2023-03-14T14:03:57;100243.28;;;6.58;47.54
55456;BME280;63021;52.836;6.376;2023-03-14T14:08:55;100258.56;;;6.55;46.91
55456;BME280;63021;52.836;6.376;2023-03-14T14:11:31;100258.97;;;6.50;46.33
55456;BME280;63021;52.836;6.376;2023-03-14T14:14:01;100277.06;;;6.45;46.51